sensor_id;sensor_type;location;lat;lon;timestamp;pressure;altitude;pressure_sealevel;temperature;humidity
15670;BME280;18524;45.190;5.732;2024-03-22T00:01:45;99763.91;;;17.67;66.66
15670;BME280;18524;45.190;5.732;2024-03-22T00:06:36;99766.69;;;17.66;66.96
15670;BME280;18524;45.190;5.732;2024-03-22T00:11:26;99761.47;;;17.56;66.69
15670;BME280;18524;45.190;5.732;2024-03-22T00:16:16;99771.88;;;17.49;66.69
15670;BME280;18524;45.190;5.732;2024-03-22T00:21:07;99777.53;;;17.37;65.98
15670;BME280;18524;45.190;5.732;2024-03-22T00:25:57;99763.91;;;17.32;66.56
15670;BME280;18524;45.190;5.732;2024-03-22T00:30:47;99763.16;;;17.22;67.70
15670;BME280;18524;45.190;5.732;2024-03-22T00:35:38;99758.00;;;17.20;68.16
15670;BME280;18524;45.190;5.732;2024-03-22T00:40:28;99766.06;;;17.01;69.94
15670;BME280;18524;45.190;5.732;2024-03-22T00:45:18;99757.44;;;16.99;70.04
15670;BME280;18524;45.190;5.732;2024-03-22T00:50:09;99760.22;;;16.97;69.82
15670;BME280;18524;45.190;5.732;2024-03-22T00:54:59;99758.41;;;16.80;70.99
15670;BME280;18524;45.190;5.732;2024-03-22T00:59:50;99768.00;;;16.81;71.29
15670;BME280;18524;45.190;5.732;2024-03-22T01:04:41;99756.34;;;16.64;71.39
15670;BME280;18524;45.190;5.732;2024-03-22T01:09:31;99754.69;;;16.63;71.64
15670;BME280;18524;45.190;5.732;2024-03-22T01:14:21;99753.31;;;16.59;71.38
15670;BME280;18524;45.190;5.732;2024-03-22T01:19:12;99748.84;;;16.60;72.35
15670;BME280;18524;45.190;5.732;2024-03-22T01:24:02;99750.06;;;16.38;72.48
15670;BME280;18524;45.190;5.732;2024-03-22T01:28:53;99745.41;;;16.49;72.76
15670;BME280;18524;45.190;5.732;2024-03-22T01:33:43;99747.97;;;16.41;73.60
15670;BME280;18524;45.190;5.732;2024-03-22T01:38:33;99739.97;;;16.14;76.26
15670;BME280;18524;45.190;5.732;2024-03-22T01:43:24;99743.91;;;16.10;77.00
15670;BME280;18524;45.190;5.732;2024-03-22T01:48:14;99743.91;;;16.10;76.98
15670;BME280;18524;45.190;5.732;2024-03-22T01:53:05;99737.22;;;16.06;77.04
15670;BME280;18524;45.190;5.732;2024-03-22T01:57:56;99735.00;;;15.91;77.56
15670;BME280;18524;45.190;5.732;2024-03-22T02:02:46;99733.06;;;15.93;78.01
15670;BME280;18524;45.190;5.732;2024-03-22T02:07:37;99734.31;;;15.99;77.86
15670;BME280;18524;45.190;5.732;2024-03-22T02:12:27;99735.00;;;15.91;78.09
15670;BME280;18524;45.190;5.732;2024-03-22T02:17:18;99723.50;;;15.73;79.79
15670;BME280;18524;45.190;5.732;2024-03-22T02:22:08;99729.22;;;15.59;80.66
15670;BME280;18524;45.190;5.732;2024-03-22T02:26:58;99724.75;;;15.50;81.47
15670;BME280;18524;45.190;5.732;2024-03-22T02:31:49;99720.16;;;15.52;82.15
15670;BME280;18524;45.190;5.732;2024-03-22T02:36:39;99718.34;;;15.52;81.94
15670;BME280;18524;45.190;5.732;2024-03-22T02:41:30;99716.81;;;15.50;82.17
15670;BME280;18524;45.190;5.732;2024-03-22T02:46:20;99713.34;;;15.59;82.12
15670;BME280;18524;45.190;5.732;2024-03-22T02:51:10;99713.78;;;15.64;82.33
15670;BME280;18524;45.190;5.732;2024-03-22T02:56:01;99707.34;;;15.57;81.85
15670;BME280;18524;45.190;5.732;2024-03-22T03:00:51;99703.03;;;15.56;81.60
15670;BME280;18524;45.190;5.732;2024-03-22T03:05:42;99694.44;;;15.44;82.50
15670;BME280;18524;45.190;5.732;2024-03-22T03:10:32;99693.06;;;15.30;83.22
15670;BME280;18524;45.190;5.732;2024-03-22T03:15:23;99698.31;;;15.21;83.75
15670;BME280;18524;45.190;5.732;2024-03-22T03:20:13;99695.72;;;15.30;84.12
15670;BME280;18524;45.190;5.732;2024-03-22T03:25:04;99700.44;;;15.27;83.53
15670;BME280;18524;45.190;5.732;2024-03-22T03:29:54;99695.97;;;15.08;85.29
15670;BME280;18524;45.190;5.732;2024-03-22T03:34:45;99693.59;;;15.05;85.15
15670;BME280;18524;45.190;5.732;2024-03-22T03:39:35;99687.78;;;14.92;85.31
15670;BME280;18524;45.190;5.732;2024-03-22T03:44:25;99684.28;;;14.91;86.39
15670;BME280;18524;45.190;5.732;2024-03-22T03:49:16;99691.63;;;14.78;86.64
15670;BME280;18524;45.190;5.732;2024-03-22T03:54:06;99686.50;;;14.77;87.20
15670;BME280;18524;45.190;5.732;2024-03-22T03:58:57;99672.28;;;14.58;88.15
15670;BME280;18524;45.190;5.732;2024-03-22T04:03:48;99673.28;;;14.57;89.34
15670;BME280;18524;45.190;5.732;2024-03-22T04:08:39;99673.00;;;14.60;88.28
15670;BME280;18524;45.190;5.732;2024-03-22T04:13:29;99675.22;;;14.55;88.48
15670;BME280;18524;45.190;5.732;2024-03-22T04:18:19;99674.25;;;14.56;88.66
15670;BME280;18524;45.190;5.732;2024-03-22T04:23:10;99669.63;;;14.49;89.14
15670;BME280;18524;45.190;5.732;2024-03-22T04:28:00;99670.75;;;14.56;88.81
15670;BME280;18524;45.190;5.732;2024-03-22T04:32:51;99676.88;;;14.56;87.88
15670;BME280;18524;45.190;5.732;2024-03-22T04:37:41;99676.44;;;14.51;88.63
15670;BME280;18524;45.190;5.732;2024-03-22T04:42:31;99678.81;;;14.54;88.60
15670;BME280;18524;45.190;5.732;2024-03-22T04:47:22;99680.63;;;14.54;88.73
15670;BME280;18524;45.190;5.732;2024-03-22T04:52:12;99682.69;;;14.50;88.55
15670;BME280;18524;45.190;5.732;2024-03-22T04:57:03;99683.69;;;14.59;88.36
15670;BME280;18524;45.190;5.732;2024-03-22T05:01:53;99701.34;;;14.58;88.09
15670;BME280;18524;45.190;5.732;2024-03-22T05:06:43;99701.81;;;14.43;89.33
15670;BME280;18524;45.190;5.732;2024-03-22T05:11:34;99703.16;;;14.37;89.21
15670;BME280;18524;45.190;5.732;2024-03-22T05:16:24;99711.50;;;14.42;88.81
15670;BME280;18524;45.190;5.732;2024-03-22T05:21:14;99706.50;;;14.39;88.90
15670;BME280;18524;45.190;5.732;2024-03-22T05:26:05;99719.41;;;14.32;88.71
15670;BME280;18524;45.190;5.732;2024-03-22T05:30:55;99715.06;;;14.22;90.42
15670;BME280;18524;45.190;5.732;2024-03-22T05:35:46;99718.75;;;14.09;91.93
15670;BME280;18524;45.190;5.732;2024-03-22T05:40:37;99723.88;;;14.11;92.73
15670;BME280;18524;45.190;5.732;2024-03-22T05:45:30;99730.47;;;14.17;92.35
15670;BME280;18524;45.190;5.732;2024-03-22T05:50:20;99733.16;;;14.05;93.25
15670;BME280;18524;45.190;5.732;2024-03-22T05:55:10;99732.97;;;13.97;95.34
15670;BME280;18524;45.190;5.732;2024-03-22T06:00:01;99726.91;;;14.06;95.97
15670;BME280;18524;45.190;5.732;2024-03-22T06:04:52;99718.75;;;14.09;95.68
15670;BME280;18524;45.190;5.732;2024-03-22T06:09:42;99716.44;;;14.16;95.91
15670;BME280;18524;45.190;5.732;2024-03-22T06:14:40;99719.69;;;14.39;94.51
15670;BME280;18524;45.190;5.732;2024-03-22T06:19:30;99715.50;;;14.57;92.64
15670;BME280;18524;45.190;5.732;2024-03-22T06:24:21;99716.06;;;14.70;90.92
15670;BME280;18524;45.190;5.732;2024-03-22T06:29:11;99719.06;;;14.87;89.69
15670;BME280;18524;45.190;5.732;2024-03-22T06:34:02;99718.91;;;15.08;86.82
15670;BME280;18524;45.190;5.732;2024-03-22T06:38:52;99727.66;;;15.18;84.85
15670;BME280;18524;45.190;5.732;2024-03-22T06:43:43;99729.09;;;15.31;84.48
15670;BME280;18524;45.190;5.732;2024-03-22T06:48:33;99728.66;;;15.36;84.54
15670;BME280;18524;45.190;5.732;2024-03-22T07:27:33;99724.19;;;15.17;83.18
15670;BME280;18524;45.190;5.732;2024-03-22T07:32:23;99726.97;;;15.16;78.98
15670;BME280;18524;45.190;5.732;2024-03-22T07:37:14;99728.25;;;15.41;76.27
15670;BME280;18524;45.190;5.732;2024-03-22T07:42:04;99732.16;;;15.37;77.51
15670;BME280;18524;45.190;5.732;2024-03-22T07:46:55;99729.63;;;15.54;76.80
15670;BME280;18524;45.190;5.732;2024-03-22T07:51:45;99728.34;;;15.87;75.01
15670;BME280;18524;45.190;5.732;2024-03-22T07:56:35;99736.59;;;16.21;73.56
15670;BME280;18524;45.190;5.732;2024-03-22T08:01:26;99737.38;;;16.41;73.38
15670;BME280;18524;45.190;5.732;2024-03-22T08:06:17;99732.97;;;17.05;70.56
15670;BME280;18524;45.190;5.732;2024-03-22T08:11:07;99727.75;;;17.84;66.35
15670;BME280;18524;45.190;5.732;2024-03-22T08:15:59;99732.84;;;18.37;62.82
15670;BME280;18524;45.190;5.732;2024-03-22T08:20:49;99725.06;;;18.78;61.05
